sensor_id;sensor_type;location;lat;lon;timestamp;pressure;altitude;pressure_sealevel;temperature;humidity
31225;BME280;17847;31.524;74.366;2023-04-06T00:02:07;98830.59;;;16.82;75.04
31225;BME280;17847;31.524;74.366;2023-04-06T00:04:37;98838.75;;;16.87;74.42
31225;BME280;17847;31.524;74.366;2023-04-06T00:07:06;98836.63;;;16.78;74.13
31225;BME280;17847;31.524;74.366;2023-04-06T00:09:36;98848.53;;;16.93;74.21
31225;BME280;17847;31.524;74.366;2023-04-06T00:12:05;98843.06;;;16.88;75.21
31225;BME280;17847;31.524;74.366;2023-04-06T00:14:35;98848.59;;;16.64;75.21
31225;BME280;17847;31.524;74.366;2023-04-06T00:17:04;98854.38;;;16.60;75.76
31225;BME280;17847;31.524;74.366;2023-04-06T00:19:34;98864.66;;;16.75;76.69
31225;BME280;17847;31.524;74.366;2023-04-06T00:22:03;98861.75;;;16.77;75.96
31225;BME280;17847;31.524;74.366;2023-04-06T00:24:33;98867.72;;;16.60;75.84
31225;BME280;17847;31.524;74.366;2023-04-06T00:27:02;98864.09;;;16.55;76.43
31225;BME280;17847;31.524;74.366;2023-04-06T00:29:31;98866.25;;;16.46;76.58
31225;BME280;17847;31.524;74.366;2023-04-06T00:32:01;98866.34;;;16.58;76.89
31225;BME280;17847;31.524;74.366;2023-04-06T00:34:31;98872.69;;;16.57;76.69
31225;BME280;17847;31.524;74.366;2023-04-06T00:37:00;98873.22;;;16.47;76.86
31225;BME280;17847;31.524;74.366;2023-04-06T00:39:30;98869.47;;;16.37;77.52
31225;BME280;17847;31.524;74.366;2023-04-06T00:41:59;98869.56;;;16.30;77.67
31225;BME280;17847;31.524;74.366;2023-04-06T00:44:29;98879.63;;;16.46;77.26
31225;BME280;17847;31.524;74.366;2023-04-06T00:47:01;98888.78;;;16.39;76.88
31225;BME280;17847;31.524;74.366;2023-04-06T00:49:32;98891.06;;;16.35;77.33
31225;BME280;17847;31.524;74.366;2023-04-06T00:52:02;98894.22;;;16.32;77.53
31225;BME280;17847;31.524;74.366;2023-04-06T00:54:31;98902.22;;;16.32;77.99
31225;BME280;17847;31.524;74.366;2023-04-06T00:57:01;98881.53;;;16.28;77.97
31225;BME280;17847;31.524;74.366;2023-04-06T00:59:31;98899.59;;;16.44;78.06
31225;BME280;17847;31.524;74.366;2023-04-06T01:02:04;98902.78;;;16.52;76.65
31225;BME280;17847;31.524;74.366;2023-04-06T01:04:39;98904.13;;;16.43;77.36
31225;BME280;17847;31.524;74.366;2023-04-06T01:07:15;98907.84;;;16.42;77.10
31225;BME280;17847;31.524;74.366;2023-04-06T01:09:59;98899.41;;;16.64;76.28
31225;BME280;17847;31.524;74.366;2023-04-06T01:12:29;98903.31;;;16.61;76.27
31225;BME280;17847;31.524;74.366;2023-04-06T01:15:04;98910.53;;;16.60;76.68
31225;BME280;17847;31.524;74.366;2023-04-06T01:17:35;98914.63;;;16.63;76.09
31225;BME280;17847;31.524;74.366;2023-04-06T01:20:11;98906.97;;;16.78;77.20
31225;BME280;17847;31.524;74.366;2023-04-06T01:22:41;98904.31;;;16.78;76.12
31225;BME280;17847;31.524;74.366;2023-04-06T01:25:12;98904.03;;;16.98;76.22
31225;BME280;17847;31.524;74.366;2023-04-06T01:27:50;98908.09;;;17.00;72.88
31225;BME280;17847;31.524;74.366;2023-04-06T01:30:24;98915.44;;;17.05;74.77
31225;BME280;17847;31.524;74.366;2023-04-06T01:33:00;98918.88;;;17.24;74.31
31225;BME280;17847;31.524;74.366;2023-04-06T01:35:49;98915.16;;;17.25;73.29
31225;BME280;17847;31.524;74.366;2023-04-06T01:38:20;98923.63;;;17.22;73.09
31225;BME280;17847;31.524;74.366;2023-04-06T01:40:49;98924.00;;;17.25;72.06
31225;BME280;17847;31.524;74.366;2023-04-06T01:43:21;98923.88;;;17.32;70.86
31225;BME280;17847;31.524;74.366;2023-04-06T01:46:17;98945.63;;;17.65;72.41
31225;BME280;17847;31.524;74.366;2023-04-06T01:48:47;98932.84;;;17.79;72.91
31225;BME280;17847;31.524;74.366;2023-04-06T01:51:37;98930.84;;;17.86;69.98
31225;BME280;17847;31.524;74.366;2023-04-06T01:54:10;98934.19;;;17.93;69.49
31225;BME280;17847;31.524;74.366;2023-04-06T01:57:00;98931.72;;;18.26;70.35
31225;BME280;17847;31.524;74.366;2023-04-06T01:59:39;98934.84;;;18.23;68.67
31225;BME280;17847;31.524;74.366;2023-04-06T02:02:27;98941.22;;;18.46;68.05
31225;BME280;17847;31.524;74.366;2023-04-06T02:05:04;98946.09;;;18.72;68.46
31225;BME280;17847;31.524;74.366;2023-04-06T02:07:34;98949.66;;;18.89;68.46
31225;BME280;17847;31.524;74.366;2023-04-06T02:10:11;98958.72;;;19.16;67.04
31225;BME280;17847;31.524;74.366;2023-04-06T02:12:42;98957.00;;;19.72;64.70
31225;BME280;17847;31.524;74.366;2023-04-06T02:15:18;98958.72;;;20.55;63.39
31225;BME280;17847;31.524;74.366;2023-04-06T02:17:48;98967.78;;;20.92;59.08
31225;BME280;17847;31.524;74.366;2023-04-06T02:20:18;98974.88;;;21.52;60.08
31225;BME280;17847;31.524;74.366;2023-04-06T02:22:47;98967.00;;;22.14;61.11
31225;BME280;17847;31.524;74.366;2023-04-06T02:25:17;98962.13;;;22.63;57.21
31225;BME280;17847;31.524;74.366;2023-04-06T02:27:46;98977.72;;;23.18;57.96
31225;BME280;17847;31.524;74.366;2023-04-06T02:30:15;98977.72;;;23.34;58.25
31225;BME280;17847;31.524;74.366;2023-04-06T02:32:44;98977.44;;;23.30;54.64
31225;BME280;17847;31.524;74.366;2023-04-06T02:35:14;98975.34;;;23.88;53.68
31225;BME280;17847;31.524;74.366;2023-04-06T02:37:46;98976.13;;;24.29;49.70
31225;BME280;17847;31.524;74.366;2023-04-06T02:40:16;98982.59;;;24.33;49.83
31225;BME280;17847;31.524;74.366;2023-04-06T02:42:45;98982.34;;;24.19;49.60
31225;BME280;17847;31.524;74.366;2023-04-06T02:45:16;98992.09;;;24.20;51.07
31225;BME280;17847;31.524;74.366;2023-04-06T02:47:47;98995.56;;;24.46;48.37
31225;BME280;17847;31.524;74.366;2023-04-06T02:50:17;98990.22;;;24.15;48.75
31225;BME280;17847;31.524;74.366;2023-04-06T02:52:54;99002.38;;;24.33;48.10
31225;BME280;17847;31.524;74.366;2023-04-06T02:55:24;99004.19;;;24.58;43.08
31225;BME280;17847;31.524;74.366;2023-04-06T02:57:53;99003.69;;;24.46;43.06
31225;BME280;17847;31.524;74.366;2023-04-06T03:00:28;99000.41;;;24.49;41.67
31225;BME280;17847;31.524;74.366;2023-04-06T03:02:57;99006.63;;;24.54;47.24
31225;BME280;17847;31.524;74.366;2023-04-06T03:05:27;98999.44;;;23.89;45.16
31225;BME280;17847;31.524;74.366;2023-04-06T03:07:57;99000.44;;;23.38;45.23
31225;BME280;17847;31.524;74.366;2023-04-06T03:10:36;99003.75;;;23.50;46.82
31225;BME280;17847;31.524;74.366;2023-04-06T03:13:07;98999.88;;;23.25;48.04
31225;BME280;17847;31.524;74.366;2023-04-06T03:15:48;99008.31;;;23.44;47.42
31225;BME280;17847;31.524;74.366;2023-04-06T03:18:24;99014.00;;;23.53;48.60
31225;BME280;17847;31.524;74.366;2023-04-06T03:20:56;99020.25;;;23.73;49.91
31225;BME280;17847;31.524;74.366;2023-04-06T03:23:34;99017.53;;;24.24;47.78
31225;BME280;17847;31.524;74.366;2023-04-06T03:26:04;99024.28;;;23.86;45.76
31225;BME280;17847;31.524;74.366;2023-04-06T03:28:34;99022.66;;;24.05;49.13
31225;BME280;17847;31.524;74.366;2023-04-06T03:31:06;99026.44;;;24.04;46.69
31225;BME280;17847;31.524;74.366;2023-04-06T03:33:51;99030.53;;;23.66;46.50
31225;BME280;17847;31.524;74.366;2023-04-06T03:36:29;99026.44;;;23.94;44.78
31225;BME280;17847;31.524;74.366;2023-04-06T03:39:00;99024.03;;;24.18;44.89
31225;BME280;17847;31.524;74.366;2023-04-06T03:41:33;99034.06;;;24.07;44.34
31225;BME280;17847;31.524;74.366;2023-04-06T03:44:32;99030.25;;;24.08;44.25
31225;BME280;17847;31.524;74.366;2023-04-06T03:47:01;99040.81;;;24.05;45.09
31225;BME280;17847;31.524;74.366;2023-04-06T03:49:31;99033.50;;;24.26;43.23
31225;BME280;17847;31.524;74.366;2023-04-06T03:52:01;99038.38;;;24.19;44.60
31225;BME280;17847;31.524;74.366;2023-04-06T03:54:30;99042.44;;;24.06;45.04
31225;BME280;17847;31.524;74.366;2023-04-06T03:56:59;99049.47;;;23.87;46.09
31225;BME280;17847;31.524;74.366;2023-04-06T03:59:29;99055.44;;;24.19;46.26
31225;BME280;17847;31.524;74.366;2023-04-06T04:01:58;99057.03;;;24.30;47.04
31225;BME280;17847;31.524;74.366;2023-04-06T04:04:29;99060.84;;;24.29;46.20
31225;BME280;17847;31.524;74.366;2023-04-06T04:06:58;99056.75;;;23.91;43.56
31225;BME280;17847;31.524;74.366;2023-04-06T04:09:29;99063.81;;;24.07;46.37
31225;BME280;17847;31.524;74.366;2023-04-06T04:11:58;99072.47;;;24.40;45.79
31225;BME280;17847;31.524;74.366;2023-04-06T04:14:30;99075.72;;;24.37;44.09
31225;BME280;17847;31.524;74.366;2023-04-06T04:16:59;99077.88;;;24.35;44.34
31225;BME280;17847;31.524;74.366;2023-04-06T04:19:29;99079.75;;;24.54;44.46
31225;BME280;17847;31.524;74.366;2023-04-06T04:21:59;99083.03;;;24.46;45.00
31225;BME280;17847;31.524;74.366;2023-04-06T04:24:32;99079.66;;;24.85;44.00
31225;BME280;17847;31.524;74.366;2023-04-06T04:27:02;99081.78;;;25.13;44.83
31225;BME280;17847;31.524;74.366;2023-04-06T04:29:34;99085.81;;;25.21;42.68
31225;BME280;17847;31.524;74.366;2023-04-06T04:32:08;99073.03;;;25.26;43.94
31225;BME280;17847;31.524;74.366;2023-04-06T04:34:38;99073.31;;;25.25;39.36
31225;BME280;17847;31.524;74.366;2023-04-06T04:37:18;99074.25;;;25.54;40.54
31225;BME280;17847;31.524;74.366;2023-04-06T04:39:52;99067.69;;;25.99;40.71
31225;BME280;17847;31.524;74.366;2023-04-06T04:42:21;99072.34;;;26.56;41.57
31225;BME280;17847;31.524;74.366;2023-04-06T04:44:54;99073.00;;;26.14;39.09
31225;BME280;17847;31.524;74.366;2023-04-06T04:47:37;99069.94;;;26.55;38.71
31225;BME280;17847;31.524;74.366;2023-04-06T04:50:08;99070.41;;;27.09;40.20
31225;BME280;17847;31.524;74.366;2023-04-06T04:52:41;99071.66;;;27.59;40.32
31225;BME280;17847;31.524;74.366;2023-04-06T04:55:17;99073.94;;;27.71;40.92
31225;BME280;17847;31.524;74.366;2023-04-06T04:57:52;99083.59;;;27.63;35.45
31225;BME280;17847;31.524;74.366;2023-04-06T05:00:30;99087.03;;;27.50;36.08
31225;BME280;17847;31.524;74.366;2023-04-06T05:03:00;99084.81;;;28.41;37.38
31225;BME280;17847;31.524;74.366;2023-04-06T05:05:33;99090.13;;;28.78;38.45
31225;BME280;17847;31.524;74.366;2023-04-06T05:08:04;99087.38;;;28.65;34.97
31225;BME280;17847;31.524;74.366;2023-04-06T05:10:42;99079.75;;;28.34;34.56
31225;BME280;17847;31.524;74.366;2023-04-06T05:13:12;99086.59;;;28.91;38.37
31225;BME280;17847;31.524;74.366;2023-04-06T05:15:44;99083.44;;;29.39;34.93
31225;BME280;17847;31.524;74.366;2023-04-06T05:18:27;99082.88;;;28.87;37.94
31225;BME280;17847;31.524;74.366;2023-04-06T05:20:58;99078.13;;;28.93;36.27
31225;BME280;17847;31.524;74.366;2023-04-06T05:23:42;99085.69;;;28.82;32.91
31225;BME280;17847;31.524;74.366;2023-04-06T05:26:12;99085.91;;;28.72;33.68
31225;BME280;17847;31.524;74.366;2023-04-06T05:28:41;99085.88;;;29.27;33.89
31225;BME280;17847;31.524;74.366;2023-04-06T05:31:13;99084.31;;;28.85;35.08
31225;BME280;17847;31.524;74.366;2023-04-06T05:33:47;99091.63;;;29.39;34.69
31225;BME280;17847;31.524;74.366;2023-04-06T05:36:27;99091.03;;;29.28;34.05
31225;BME280;17847;31.524;74.366;2023-04-06T05:38:56;99085.88;;;29.13;31.45
31225;BME280;17847;31.524;74.366;2023-04-06T05:41:35;99095.69;;;29.41;34.46
31225;BME280;17847;31.524;74.366;2023-04-06T05:44:10;99095.59;;;29.47;30.36
31225;BME280;17847;31.524;74.366;2023-04-06T05:46:43;99099.03;;;29.88;35.61
31225;BME280;17847;31.524;74.366;2023-04-06T05:49:16;99094.44;;;29.83;34.57
31225;BME280;17847;31.524;74.366;2023-04-06T05:51:45;99100.22;;;29.96;34.33
31225;BME280;17847;31.524;74.366;2023-04-06T05:54:15;99092.09;;;30.04;36.02
31225;BME280;17847;31.524;74.366;2023-04-06T05:56:48;99096.28;;;29.88;32.39
31225;BME280;17847;31.524;74.366;2023-04-06T05:59:18;99082.88;;;29.42;30.01
31225;BME280;17847;31.524;74.366;2023-04-06T06:01:47;99083.03;;;29.59;38.40
31225;BME280;17847;31.524;74.366;2023-04-06T06:04:19;99081.41;;;30.16;35.47
31225;BME280;17847;31.524;74.366;2023-04-06T06:06:52;99079.22;;;30.27;32.75
31225;BME280;17847;31.524;74.366;2023-04-06T06:09:28;99080.41;;;29.90;34.13
31225;BME280;17847;31.524;74.366;2023-04-06T06:12:16;99075.59;;;29.73;33.71
31225;BME280;17847;31.524;74.366;2023-04-06T06:14:47;99081.34;;;30.08;33.60
31225;BME280;17847;31.524;74.366;2023-04-06T06:17:18;99076.31;;;30.01;32.71
31225;BME280;17847;31.524;74.366;2023-04-06T06:19:49;99082.78;;;29.33;29.79
31225;BME280;17847;31.524;74.366;2023-04-06T06:22:19;99074.00;;;29.59;31.60
31225;BME280;17847;31.524;74.366;2023-04-06T06:24:49;99074.63;;;29.56;33.24
31225;BME280;17847;31.524;74.366;2023-04-06T06:27:20;99074.53;;;29.61;30.43
31225;BME280;17847;31.524;74.366;2023-04-06T06:29:50;99081.44;;;29.03;34.66
31225;BME280;17847;31.524;74.366;2023-04-06T06:32:22;99078.13;;;29.07;34.22
31225;BME280;17847;31.524;74.366;2023-04-06T06:34:53;99077.13;;;29.66;32.91
31225;BME280;17847;31.524;74.366;2023-04-06T06:37:23;99077.81;;;29.35;31.73
31225;BME280;17847;31.524;74.366;2023-04-06T06:39:53;99080.38;;;29.68;31.97
31225;BME280;17847;31.524;74.366;2023-04-06T06:42:23;99078.41;;;29.82;35.25
31225;BME280;17847;31.524;74.366;2023-04-06T06:45:07;99072.41;;;29.58;32.98
31225;BME280;17847;31.524;74.366;2023-04-06T06:47:36;99074.09;;;29.67;34.31
31225;BME280;17847;31.524;74.366;2023-04-06T06:50:07;99067.22;;;29.07;31.66
31225;BME280;17847;31.524;74.366;2023-04-06T06:52:37;99068.75;;;28.72;32.33
31225;BME280;17847;31.524;74.366;2023-04-06T06:55:10;99066.50;;;28.87;33.06
31225;BME280;17847;31.524;74.366;2023-04-06T06:57:41;99069.72;;;29.30;34.30
31225;BME280;17847;31.524;74.366;2023-04-06T07:00:14;99070.44;;;29.36;34.51
31225;BME280;17847;31.524;74.366;2023-04-06T07:02:46;99077.13;;;28.89;32.42
31225;BME280;17847;31.524;74.366;2023-04-06T07:05:17;99069.59;;;29.22;34.61
31225;BME280;17847;31.524;74.366;2023-04-06T07:07:57;99069.22;;;29.15;32.63
31225;BME280;17847;31.524;74.366;2023-04-06T07:10:27;99065.47;;;29.24;35.69
31225;BME280;17847;31.524;74.366;2023-04-06T07:12:57;99070.63;;;29.12;32.98
31225;BME280;17847;31.524;74.366;2023-04-06T07:15:27;99070.94;;;29.24;34.98
31225;BME280;17847;31.524;74.366;2023-04-06T07:17:58;99065.78;;;29.36;32.87
31225;BME280;17847;31.524;74.366;2023-04-06T07:20:28;99057.72;;;28.90;32.41
31225;BME280;17847;31.524;74.366;2023-04-06T07:22:58;99057.41;;;28.92;35.46
31225;BME280;17847;31.524;74.366;2023-04-06T07:25:27;99055.69;;;28.96;34.34
31225;BME280;17847;31.524;74.366;2023-04-06T07:27:57;99046.06;;;29.26;33.20
31225;BME280;17847;31.524;74.366;2023-04-06T07:30:27;99052.78;;;28.92;33.91
31225;BME280;17847;31.524;74.366;2023-04-06T07:32:59;99058.78;;;29.17;36.17
31225;BME280;17847;31.524;74.366;2023-04-06T07:35:30;99046.06;;;29.26;33.31
31225;BME280;17847;31.524;74.366;2023-04-06T07:37:59;99041.44;;;29.13;33.11
31225;BME280;17847;31.524;74.366;2023-04-06T07:40:31;99043.28;;;28.90;32.89
31225;BME280;17847;31.524;74.366;2023-04-06T07:43:03;99041.13;;;29.14;32.78
31225;BME280;17847;31.524;74.366;2023-04-06T07:45:33;99038.19;;;28.42;31.87
31225;BME280;17847;31.524;74.366;2023-04-06T07:48:03;99042.28;;;28.72;32.75
31225;BME280;17847;31.524;74.366;2023-04-06T07:50:33;99040.97;;;28.97;34.66
31225;BME280;17847;31.524;74.366;2023-04-06T07:53:05;99033.75;;;29.15;34.54
31225;BME280;17847;31.524;74.366;2023-04-06T07:55:35;99037.50;;;29.19;35.95
31225;BME280;17847;31.524;74.366;2023-04-06T07:58:05;99028.84;;;29.03;34.90
31225;BME280;17847;31.524;74.366;2023-04-06T08:00:34;99025.97;;;29.08;35.80
31225;BME280;17847;31.524;74.366;2023-04-06T08:03:04;99028.31;;;29.01;30.87
31225;BME280;17847;31.524;74.366;2023-04-06T08:05:35;99024.22;;;28.90;35.90
31225;BME280;17847;31.524;74.366;2023-04-06T08:08:04;99014.38;;;29.02;32.83
31225;BME280;17847;31.524;74.366;2023-04-06T08:10:34;99013.16;;;29.09;34.09
31225;BME280;17847;31.524;74.366;2023-04-06T08:13:04;99009.91;;;29.20;33.37
31225;BME280;17847;31.524;74.366;2023-04-06T08:15:33;99008.00;;;29.21;32.31
31225;BME280;17847;31.524;74.366;2023-04-06T08:18:03;99012.13;;;29.18;34.17
31225;BME280;17847;31.524;74.366;2023-04-06T08:20:33;99012.53;;;29.25;34.43
31225;BME280;17847;31.524;74.366;2023-04-06T08:23:03;99001.16;;;28.96;31.37
31225;BME280;17847;31.524;74.366;2023-04-06T08:25:34;98992.88;;;28.87;31.05
31225;BME280;17847;31.524;74.366;2023-04-06T08:28:07;99000.16;;;28.92;35.77
31225;BME280;17847;31.524;74.366;2023-04-06T08:30:41;98997.41;;;28.92;34.32
31225;BME280;17847;31.524;74.366;2023-04-06T08:33:12;98991.78;;;28.88;34.06
31225;BME280;17847;31.524;74.366;2023-04-06T08:35:43;98992.78;;;28.92;32.47
31225;BME280;17847;31.524;74.366;2023-04-06T08:38:13;98986.69;;;28.95;33.24
31225;BME280;17847;31.524;74.366;2023-04-06T08:40:44;98986.50;;;28.92;34.59
31225;BME280;17847;31.524;74.366;2023-04-06T08:43:17;98984.72;;;28.74;32.09
31225;BME280;17847;31.524;74.366;2023-04-06T08:45:49;98978.84;;;28.67;30.68
31225;BME280;17847;31.524;74.366;2023-04-06T08:48:18;98980.34;;;28.59;29.62
31225;BME280;17847;31.524;74.366;2023-04-06T08:50:48;98976.06;;;28.72;34.20
31225;BME280;17847;31.524;74.366;2023-04-06T08:53:19;98966.13;;;28.62;29.55
31225;BME280;17847;31.524;74.366;2023-04-06T08:55:50;98959.88;;;28.75;32.50
31225;BME280;17847;31.524;74.366;2023-04-06T08:58:21;98958.66;;;28.81;31.43
31225;BME280;17847;31.524;74.366;2023-04-06T09:01:11;98959.75;;;28.94;31.71
31225;BME280;17847;31.524;74.366;2023-04-06T09:03:43;98949.16;;;28.65;30.20
31225;BME280;17847;31.524;74.366;2023-04-06T09:06:14;98943.81;;;28.74;31.70
31225;BME280;17847;31.524;74.366;2023-04-06T09:08:44;98943.41;;;28.94;33.60
31225;BME280;17847;31.524;74.366;2023-04-06T09:11:15;98938.03;;;28.89;31.52
31225;BME280;17847;31.524;74.366;2023-04-06T09:13:54;98932.59;;;28.89;31.80
31225;BME280;17847;31.524;74.366;2023-04-06T09:16:25;98933.63;;;28.79;32.08
31225;BME280;17847;31.524;74.366;2023-04-06T09:19:04;98925.16;;;28.81;31.86
31225;BME280;17847;31.524;74.366;2023-04-06T09:21:34;98926.84;;;28.77;31.73
31225;BME280;17847;31.524;74.366;2023-04-06T09:24:06;98922.44;;;28.53;29.89
31225;BME280;17847;31.524;74.366;2023-04-06T09:26:47;98912.34;;;28.54;32.02
31225;BME280;17847;31.524;74.366;2023-04-06T09:29:26;98917.38;;;28.74;31.71
31225;BME280;17847;31.524;74.366;2023-04-06T09:32:03;98907.16;;;28.80;31.12
31225;BME280;17847;31.524;74.366;2023-04-06T09:34:34;98900.97;;;28.88;30.47
31225;BME280;17847;31.524;74.366;2023-04-06T09:37:15;98897.25;;;28.84;30.40
31225;BME280;17847;31.524;74.366;2023-04-06T09:39:46;98886.75;;;28.77;32.22
31225;BME280;17847;31.524;74.366;2023-04-06T09:42:24;98890.19;;;28.83;31.94
31225;BME280;17847;31.524;74.366;2023-04-06T09:44:55;98886.06;;;28.85;30.34
31225;BME280;17847;31.524;74.366;2023-04-06T09:47:25;98880.09;;;28.83;29.33
31225;BME280;17847;31.524;74.366;2023-04-06T09:49:58;98876.38;;;28.79;29.59
31225;BME280;17847;31.524;74.366;2023-04-06T09:52:54;98867.66;;;28.77;30.78
31225;BME280;17847;31.524;74.366;2023-04-06T09:55:34;98872.75;;;28.70;31.00
31225;BME280;17847;31.524;74.366;2023-04-06T09:58:06;98863.34;;;28.63;29.40
31225;BME280;17847;31.524;74.366;2023-04-06T10:00:55;98867.22;;;28.48;29.96
31225;BME280;17847;31.524;74.366;2023-04-06T10:04:21;98862.75;;;28.52;31.05
31225;BME280;17847;31.524;74.366;2023-04-06T10:06:51;98866.38;;;28.61;32.68
31225;BME280;17847;31.524;74.366;2023-04-06T10:09:25;98856.00;;;28.63;32.85
31225;BME280;17847;31.524;74.366;2023-04-06T10:12:03;98864.47;;;28.62;31.58
31225;BME280;17847;31.524;74.366;2023-04-06T10:14:34;98861.22;;;28.59;32.33
31225;BME280;17847;31.524;74.366;2023-04-06T10:17:07;98858.63;;;28.54;30.61
31225;BME280;17847;31.524;74.366;2023-04-06T10:19:55;98853.59;;;28.48;30.09
31225;BME280;17847;31.524;74.366;2023-04-06T10:25:04;98842.78;;;28.43;33.01
31225;BME280;17847;31.524;74.366;2023-04-06T10:27:34;98842.97;;;28.46;31.86
31225;BME280;17847;31.524;74.366;2023-04-06T10:30:05;98843.59;;;28.43;33.23
31225;BME280;17847;31.524;74.366;2023-04-06T10:32:39;98832.81;;;28.38;32.05
31225;BME280;17847;31.524;74.366;2023-04-06T10:35:10;98833.25;;;28.32;32.45
31225;BME280;17847;31.524;74.366;2023-04-06T10:37:54;98832.31;;;28.36;32.94
31225;BME280;17847;31.524;74.366;2023-04-06T10:40:30;98834.25;;;28.36;33.14
31225;BME280;17847;31.524;74.366;2023-04-06T10:43:22;98830.00;;;28.30;33.69
31225;BME280;17847;31.524;74.366;2023-04-06T10:46:00;98833.25;;;28.32;31.87
31225;BME280;17847;31.524;74.366;2023-04-06T10:48:42;98831.44;;;28.27;31.20
31225;BME280;17847;31.524;74.366;2023-04-06T10:51:16;98829.28;;;28.24;33.35
31225;BME280;17847;31.524;74.366;2023-04-06T10:53:47;98826.38;;;28.21;32.23
31225;BME280;17847;31.524;74.366;2023-04-06T10:56:22;98826.81;;;28.14;31.20
31225;BME280;17847;31.524;74.366;2023-04-06T10:58:54;98822.47;;;28.13;31.57
31225;BME280;17847;31.524;74.366;2023-04-06T11:01:27;98818.19;;;28.07;29.77
31225;BME280;17847;31.524;74.366;2023-04-06T11:03:57;98818.00;;;28.03;31.32
31225;BME280;17847;31.524;74.366;2023-04-06T11:06:31;98808.00;;;27.99;31.82
31225;BME280;17847;31.524;74.366;2023-04-06T11:09:01;98809.91;;;27.98;29.95
31225;BME280;17847;31.524;74.366;2023-04-06T11:11:30;98805.09;;;27.95;31.28
31225;BME280;17847;31.524;74.366;2023-04-06T11:14:00;98814.78;;;27.88;32.01
31225;BME280;17847;31.524;74.366;2023-04-06T11:16:32;98814.97;;;27.78;32.72
31225;BME280;17847;31.524;74.366;2023-04-06T11:19:05;98816.38;;;27.75;31.61
31225;BME280;17847;31.524;74.366;2023-04-06T11:21:46;98806.28;;;27.76;31.10
31225;BME280;17847;31.524;74.366;2023-04-06T11:24:23;98810.13;;;27.75;33.22
31225;BME280;17847;31.524;74.366;2023-04-06T11:26:56;98814.25;;;27.72;33.18
31225;BME280;17847;31.524;74.366;2023-04-06T11:29:28;98807.41;;;27.75;32.75
31225;BME280;17847;31.524;74.366;2023-04-06T11:32:00;98813.16;;;27.73;32.29
31225;BME280;17847;31.524;74.366;2023-04-06T11:34:33;98812.75;;;27.66;32.81
31225;BME280;17847;31.524;74.366;2023-04-06T11:37:09;98807.19;;;27.57;32.71
31225;BME280;17847;31.524;74.366;2023-04-06T11:42:11;98806.28;;;27.48;33.09
31225;BME280;17847;31.524;74.366;2023-04-06T11:44:43;98819.94;;;27.43;32.89
31225;BME280;17847;31.524;74.366;2023-04-06T11:47:18;98819.50;;;27.36;32.76
31225;BME280;17847;31.524;74.366;2023-04-06T11:49:48;98814.16;;;27.31;33.53
31225;BME280;17847;31.524;74.366;2023-04-06T11:52:20;98811.53;;;27.26;33.56
31225;BME280;17847;31.524;74.366;2023-04-06T11:54:52;98821.91;;;27.24;32.63
31225;BME280;17847;31.524;74.366;2023-04-06T11:57:22;98818.47;;;27.18;32.49
31225;BME280;17847;31.524;74.366;2023-04-06T11:59:55;98821.78;;;27.15;33.14
31225;BME280;17847;31.524;74.366;2023-04-06T12:02:25;98825.41;;;27.11;33.06
31225;BME280;17847;31.524;74.366;2023-04-06T12:04:54;98821.06;;;27.10;33.29
31225;BME280;17847;31.524;74.366;2023-04-06T12:07:24;98821.13;;;27.05;33.24
31225;BME280;17847;31.524;74.366;2023-04-06T12:09:53;98820.44;;;26.99;33.85
31225;BME280;17847;31.524;74.366;2023-04-06T12:12:22;98827.31;;;26.92;33.57
31225;BME280;17847;31.524;74.366;2023-04-06T12:14:51;98819.56;;;26.85;34.37
31225;BME280;17847;31.524;74.366;2023-04-06T12:17:21;98825.84;;;26.80;35.11
31225;BME280;17847;31.524;74.366;2023-04-06T12:19:50;98827.81;;;26.75;33.29
31225;BME280;17847;31.524;74.366;2023-04-06T12:22:20;98827.63;;;26.71;33.86
31225;BME280;17847;31.524;74.366;2023-04-06T12:24:49;98822.47;;;26.70;34.01
31225;BME280;17847;31.524;74.366;2023-04-06T12:27:19;98825.25;;;26.65;34.00
31225;BME280;17847;31.524;74.366;2023-04-06T12:29:48;98827.75;;;26.61;35.75
31225;BME280;17847;31.524;74.366;2023-04-06T12:32:17;98829.22;;;26.54;36.14
31225;BME280;17847;31.524;74.366;2023-04-06T12:34:47;98832.28;;;26.47;35.08
31225;BME280;17847;31.524;74.366;2023-04-06T12:37:17;98838.03;;;26.46;34.13
31225;BME280;17847;31.524;74.366;2023-04-06T12:39:46;98845.44;;;26.40;35.73
31225;BME280;17847;31.524;74.366;2023-04-06T12:42:16;98845.56;;;26.30;35.95
31225;BME280;17847;31.524;74.366;2023-04-06T12:44:46;98841.31;;;26.24;35.62
31225;BME280;17847;31.524;74.366;2023-04-06T12:47:15;98843.53;;;26.17;35.57
31225;BME280;17847;31.524;74.366;2023-04-06T12:49:45;98852.25;;;26.14;36.62
31225;BME280;17847;31.524;74.366;2023-04-06T12:52:15;98843.16;;;26.05;37.36
31225;BME280;17847;31.524;74.366;2023-04-06T12:54:44;98849.16;;;26.02;38.10
31225;BME280;17847;31.524;74.366;2023-04-06T12:57:16;98850.91;;;25.92;38.77
31225;BME280;17847;31.524;74.366;2023-04-06T12:59:45;98855.28;;;25.88;38.80
31225;BME280;17847;31.524;74.366;2023-04-06T13:02:15;98850.47;;;25.80;38.37
31225;BME280;17847;31.524;74.366;2023-04-06T13:04:45;98853.53;;;25.74;38.89
31225;BME280;17847;31.524;74.366;2023-04-06T13:07:14;98848.16;;;25.69;40.17
31225;BME280;17847;31.524;74.366;2023-04-06T13:09:43;98854.97;;;25.66;38.84
31225;BME280;17847;31.524;74.366;2023-04-06T13:12:13;98856.66;;;25.62;39.65
31225;BME280;17847;31.524;74.366;2023-04-06T13:14:43;98855.06;;;25.56;40.21
31225;BME280;17847;31.524;74.366;2023-04-06T13:17:12;98858.06;;;25.49;40.30
31225;BME280;17847;31.524;74.366;2023-04-06T13:19:42;98862.75;;;25.44;41.71
31225;BME280;17847;31.524;74.366;2023-04-06T13:22:11;98861.41;;;25.41;41.51
31225;BME280;17847;31.524;74.366;2023-04-06T13:24:40;98864.22;;;25.31;40.73